sensor_id;sensor_type;location;lat;lon;timestamp;temperature;humidity
31653;DHT22;18261;53.648;9.910;2023-03-01T12:26:30;25.20;1.00
31653;DHT22;18261;53.648;9.910;2023-03-01T12:31:51;23.70;1.00
31653;DHT22;18261;53.648;9.910;2023-03-01T12:34:43;24.30;1.00
31653;DHT22;18261;53.648;9.910;2023-03-01T12:37:29;24.20;1.00
31653;DHT22;18261;53.648;9.910;2023-03-01T12:40:33;23.90;1.00
31653;DHT22;18261;53.648;9.910;2023-03-01T12:50:53;25.10;1.00
31653;DHT22;18261;53.648;9.910;2023-03-01T12:56:01;25.30;1.00
31653;DHT22;18261;53.648;9.910;2023-03-01T13:01:25;26.40;1.00
31653;DHT22;18261;53.648;9.910;2023-03-01T13:04:07;25.90;1.00
31653;DHT22;18261;53.648;9.910;2023-03-01T13:12:02;26.60;1.00
31653;DHT22;18261;53.648;9.910;2023-03-01T13:16:56;26.90;1.00
31653;DHT22;18261;53.648;9.910;2023-03-01T13:19:24;25.60;1.00
31653;DHT22;18261;53.648;9.910;2023-03-01T13:21:52;25.70;1.00
31653;DHT22;18261;53.648;9.910;2023-03-01T13:24:39;25.20;1.00
31653;DHT22;18261;53.648;9.910;2023-03-01T13:27:20;25.40;1.00
31653;DHT22;18261;53.648;9.910;2023-03-01T13:29:53;25.30;1.00
31653;DHT22;18261;53.648;9.910;2023-03-01T13:34:56;25.90;1.00
31653;DHT22;18261;53.648;9.910;2023-03-01T13:37:27;25.80;1.00
31653;DHT22;18261;53.648;9.910;2023-03-01T13:39:56;25.70;1.00
31653;DHT22;18261;53.648;9.910;2023-03-01T13:44:55;25.80;1.00
31653;DHT22;18261;53.648;9.910;2023-03-01T13:47:21;25.80;1.00
31653;DHT22;18261;53.648;9.910;2023-03-01T13:50:03;26.10;1.00
31653;DHT22;18261;53.648;9.910;2023-03-01T13:53:00;26.50;1.00
31653;DHT22;18261;53.648;9.910;2023-03-01T13:58:04;27.10;1.00
31653;DHT22;18261;53.648;9.910;2023-03-01T14:00:39;27.00;1.00
31653;DHT22;18261;53.648;9.910;2023-03-01T14:03:16;27.30;1.00
31653;DHT22;18261;53.648;9.910;2023-03-01T14:06:29;27.30;1.00
31653;DHT22;18261;53.648;9.910;2023-03-01T14:08:32;27.00;1.00
31653;DHT22;18261;53.648;9.910;2023-03-01T14:21:38;26.70;1.00
31653;DHT22;18261;53.648;9.910;2023-03-01T14:24:04;26.60;1.00
31653;DHT22;18261;53.648;9.910;2023-03-01T14:26:31;26.20;1.00
31653;DHT22;18261;53.648;9.910;2023-03-01T14:28:58;26.40;1.00
31653;DHT22;18261;53.648;9.910;2023-03-01T14:31:37;25.80;1.00
31653;DHT22;18261;53.648;9.910;2023-03-01T14:34:04;25.60;1.00
31653;DHT22;18261;53.648;9.910;2023-03-01T14:36:32;25.60;1.00
31653;DHT22;18261;53.648;9.910;2023-03-01T14:38:58;25.40;1.00
31653;DHT22;18261;53.648;9.910;2023-03-01T14:41:32;25.60;1.00
31653;DHT22;18261;53.648;9.910;2023-03-01T14:44:02;25.80;1.00
31653;DHT22;18261;53.648;9.910;2023-03-01T14:46:34;25.50;1.00
31653;DHT22;18261;53.648;9.910;2023-03-01T14:49:10;25.90;1.00
31653;DHT22;18261;53.648;9.910;2023-03-01T14:51:38;25.90;1.00
31653;DHT22;18261;53.648;9.910;2023-03-01T14:56:47;26.00;1.00
31653;DHT22;18261;53.648;9.910;2023-03-01T14:59:13;26.30;1.00
31653;DHT22;18261;53.648;9.910;2023-03-01T15:01:40;26.40;1.00
31653;DHT22;18261;53.648;9.910;2023-03-01T15:04:10;26.50;1.00
31653;DHT22;18261;53.648;9.910;2023-03-01T15:06:37;26.40;1.00
31653;DHT22;18261;53.648;9.910;2023-03-01T15:09:03;26.40;1.00
31653;DHT22;18261;53.648;9.910;2023-03-01T15:11:33;26.00;1.00
31653;DHT22;18261;53.648;9.910;2023-03-01T15:14:01;26.00;1.00
31653;DHT22;18261;53.648;9.910;2023-03-01T15:16:29;26.10;1.00
31653;DHT22;18261;53.648;9.910;2023-03-01T15:18:58;25.80;1.00
31653;DHT22;18261;53.648;9.910;2023-03-01T15:21:27;25.30;1.00
31653;DHT22;18261;53.648;9.910;2023-03-01T15:26:49;25.00;1.00
31653;DHT22;18261;53.648;9.910;2023-03-01T15:29:39;24.60;1.00
31653;DHT22;18261;53.648;9.910;2023-03-01T15:34:49;24.30;1.00
31653;DHT22;18261;53.648;9.910;2023-03-01T15:39:59;24.10;1.00
31653;DHT22;18261;53.648;9.910;2023-03-01T15:47:50;23.60;1.00
31653;DHT22;18261;53.648;9.910;2023-03-01T15:50:27;23.40;1.00
31653;DHT22;18261;53.648;9.910;2023-03-01T15:52:54;22.50;1.00
31653;DHT22;18261;53.648;9.910;2023-03-01T15:55:29;22.20;1.00
31653;DHT22;18261;53.648;9.910;2023-03-01T15:58:00;22.10;1.00
31653;DHT22;18261;53.648;9.910;2023-03-01T16:00:26;21.90;1.00
31653;DHT22;18261;53.648;9.910;2023-03-01T16:02:52;21.50;1.00
31653;DHT22;18261;53.648;9.910;2023-03-01T16:05:27;21.40;1.00
31653;DHT22;18261;53.648;9.910;2023-03-01T16:07:53;21.30;1.00
31653;DHT22;18261;53.648;9.910;2023-03-01T16:10:19;21.00;1.00
31653;DHT22;18261;53.648;9.910;2023-03-01T16:12:45;20.70;1.00
31653;DHT22;18261;53.648;9.910;2023-03-01T16:15:32;20.50;1.00
31653;DHT22;18261;53.648;9.910;2023-03-01T16:18:02;20.30;1.00
